METAR Data
IDs: Format: Raw Decoded Include TAF

Data at: 1826 UTC 21 Sep 2018

K5C1 211815Z AUTO 19008KT 10SM SCT023 BKN032 27/22 A2998 RMK AO1
K5C1 211755Z AUTO 18009G14KT 150V210 10SM SCT021 SCT027 SCT037 27/22 A2999 RMK AO1
K5C1 211735Z AUTO 19010KT 10SM SCT021 BKN029 BKN034 26/22 A3000 RMK AO1
K5C1 211715Z AUTO 17008G14KT 10SM SCT019 SCT028 SCT036 26/22 A3001 RMK AO1
K5C1 211655Z AUTO 00000KT 10SM SCT017 SCT024 SCT037 26/22 A3001 RMK AO1
K5C1 211635Z AUTO 17009KT 10SM SCT017 SCT024 BKN035 25/22 A3001 RMK AO1
K5C1 211615Z AUTO 18008KT 150V210 10SM SCT015 BKN022 OVC044 25/23 A3002 RMK AO1
K5C1 211555Z AUTO 17008KT 10SM BKN015 BKN026 OVC044 25/22 A3001 RMK AO1
K5C1 211535Z AUTO 18012KT 10SM BKN013 BKN021 OVC032 25/22 A3001 RMK AO1
K5C1 211515Z AUTO 17008KT 10SM BKN013 OVC018 25/22 A3001 RMK AO1
K5C1 211455Z AUTO 18009G17KT 10SM BKN011 OVC028 25/22 A3000 RMK AO1
K5C1 211435Z AUTO 17009G15KT 10SM BKN011 BKN016 OVC025 24/22 A2999 RMK AO1
K5C1 211415Z AUTO 18006KT 10SM BKN011 BKN016 BKN026 24/22 A2999 RMK AO1
K5C1 211355Z AUTO 17011G14KT 10SM SCT011 BKN016 BKN023 23/22 A2998 RMK AO1
K5C1 211335Z AUTO 17007G14KT 10SM BKN011 BKN019 BKN025 23/22 A2999 RMK AO1
K5C1 211315Z AUTO 17008KT 10SM BKN011 OVC019 23/22 A2998 RMK AO1
K5C1 211255Z AUTO 17008G16KT 10SM BKN011 OVC022 23/22 A2997 RMK AO1
K5C1 211235Z AUTO 00000KT 10SM OVC011 23/22 A2996 RMK AO1
K5C1 211215Z AUTO 00000KT 10SM BKN011 OVC017 23/22 A2996 RMK AO1
K5C1 211155Z AUTO 00000KT 10SM BKN013 OVC021 23/22 A2996 RMK AO1
K5C1 211135Z AUTO 00000KT 10SM OVC013 23/22 A2995 RMK AO1
K5C1 211115Z AUTO 17004KT 10SM BKN011 OVC018 23/22 A2995 RMK AO1
K5C1 211055Z AUTO 17008KT 10SM OVC011 23/22 A2995 RMK AO1
K5C1 211035Z AUTO 00000KT 10SM OVC013 23/22 A2995 RMK AO1
K5C1 211015Z AUTO 16003KT 10SM BKN011 BKN019 OVC025 23/22 A2995 RMK AO1
K5C1 210955Z AUTO 17007KT 10SM BKN011 BKN017 OVC025 23/22 A2995 RMK AO1
K5C1 210935Z AUTO 18005G16KT 10SM BKN009 OVC023 23/22 A2995 RMK AO1
K5C1 210915Z AUTO 00000KT 10SM OVC011 23/22 A2995 RMK AO1
K5C1 210855Z AUTO 17005KT 10SM OVC011 23/23 A2995 RMK AO1
K5C1 210835Z AUTO 17004KT 10SM OVC011 23/22 A2996 RMK AO1
K5C1 210815Z AUTO 18009G15KT 10SM OVC013 23/22 A2996 RMK AO1
K5C1 210755Z AUTO 17007G19KT 10SM BKN011 OVC017 23/23 A2996 RMK AO1
K5C1 210735Z AUTO 00000KT 10SM BKN011 OVC015 23/23 A2996 RMK AO1
K5C1 210715Z AUTO 17009G17KT 10SM BKN011 OVC017 23/23 A2997 RMK AO1
K5C1 210655Z AUTO 17006KT 10SM OVC011 23/23 A2997 RMK AO1
K5C1 210635Z AUTO 00000KT 10SM OVC011 23/23 A2997 RMK AO1
K5C1 210615Z AUTO 00000KT 10SM OVC011 23/23 A2997 RMK AO1
K5C1 210555Z AUTO 00000KT 10SM BKN011 OVC017 23/23 A2998 RMK AO1
K5C1 210535Z AUTO 00000KT 10SM BKN011 OVC015 23/23 A2998 RMK AO1
K5C1 210515Z AUTO 00000KT 10SM BKN012 OVC017 23/23 A2998 RMK AO1
K5C1 210455Z AUTO 00000KT 10SM BKN009 OVC015 23/23 A2999 RMK AO1
K5C1 210435Z AUTO 15005KT 10SM OVC009 23/23 A2999 RMK AO1
K5C1 210415Z AUTO 00000KT 10SM BKN007 OVC011 23/23 A2999 RMK AO1
K5C1 210355Z AUTO 00000KT 10SM OVC005 23/23 A2999 RMK AO1
K5C1 210335Z AUTO 00000KT 10SM OVC007 23/23 A2998 RMK AO1
K5C1 210315Z AUTO 00000KT 10SM OVC007 23/23 A2998 RMK AO1
K5C1 210255Z AUTO 00000KT 7SM OVC005 23/23 A2998 RMK AO1 P0001
K5C1 210235Z AUTO 00000KT 10SM OVC007 23/23 A2997 RMK AO1 P0001
K5C1 210215Z AUTO 00000KT 10SM BKN007 OVC011 23/23 A2996 RMK AO1 P0001
K5C1 210155Z AUTO 00000KT 7SM BKN007 OVC012 23/23 A2996 RMK AO1 P0001
K5C1 210135Z AUTO 00000KT 10SM SCT008 BKN014 OVC028 23/23 A2995 RMK AO1
K5C1 210115Z AUTO 00000KT 10SM BKN007 BKN020 OVC026 23/23 A2994 RMK AO1
K5C1 210055Z AUTO 00000KT 10SM OVC007 23/23 A2994 RMK AO1
K5C1 210035Z AUTO 00000KT 10SM OVC007 23/22 A2993 RMK AO1
K5C1 210015Z AUTO 00000KT 10SM BKN009 BKN016 OVC040 23/22 A2993 RMK AO1
K5C1 202355Z AUTO 12008G15KT 10SM SCT016 BKN024 OVC040 24/22 A2993 RMK AO1
K5C1 202335Z AUTO 12003KT 10SM BKN028 BKN033 OVC043 25/23 A2992 RMK AO1
K5C1 202315Z AUTO 13004KT 10SM SCT025 BKN031 OVC037 25/22 A2992 RMK AO1
K5C1 202255Z AUTO 00000KT 10SM BKN033 BKN040 OVC080 25/22 A2992 RMK AO1
K5C1 202235Z AUTO 00000KT 10SM SCT015 SCT020 BKN080 26/23 A2992 RMK AO1
K5C1 202215Z AUTO 00000KT 10SM SCT017 SCT022 SCT080 27/23 A2991 RMK AO1
K5C1 202155Z AUTO 00000KT 10SM CLR 26/23 A2992 RMK AO1
K5C1 202135Z AUTO 00000KT 10SM SCT085 25/23 A2992 RMK AO1
K5C1 202115Z AUTO 00000KT 10SM SCT024 BKN042 OVC080 24/23 A2992 RMK AO1
K5C1 202055Z AUTO 00000KT 10SM SCT024 SCT032 BKN042 25/23 A2993 RMK AO1 P0002
K5C1 202035Z AUTO 00000KT 10SM SCT031 SCT095 SCT120 25/22 A2994 RMK AO1 P0002
K5C1 202015Z AUTO 20004KT 7SM SCT016 BKN036 OVC095 23/23 A2994 RMK AO1 P0002
K5C1 201955Z AUTO 22007G19KT 1SM BKN016 OVC034 22/21 A2996 RMK AO1 VIS 1/2V4 P0028
K5C1 201935Z AUTO 18010G15KT 160V220 10SM SCT024 SCT035 BKN120 27/21 A2995 RMK AO1
K5C1 201915Z AUTO 17010G15KT 10SM SCT020 SCT032 BKN050 27/22 A2995 RMK AO1
K5C1 201855Z AUTO 17007KT 10SM SCT018 27/22 A2997 RMK AO1
K5C1 201835Z AUTO 16010KT 10SM SCT120 27/22 A2998 RMK AO1
K5C1 201815Z AUTO 18010KT 10SM SCT050 SCT060 BKN120 26/22 A2998 RMK AO1
K5C1 201755Z AUTO 16005KT 10SM SCT028 BKN065 OVC120 25/21 A3000 RMK AO1
K5C1 201735Z AUTO 16009G15KT 10SM SCT023 BKN032 OVC070 25/22 A3001 RMK AO1
K5C1 201715Z AUTO 17007G15KT 10SM BKN021 BKN050 BKN065 26/22 A3001 RMK AO1
K5C1 201655Z AUTO 16006G14KT 10SM SCT014 SCT019 SCT028 26/22 A3001 RMK AO1
K5C1 201635Z AUTO 17008KT 10SM SCT014 SCT019 26/23 A3002 RMK AO1
K5C1 201615Z AUTO 00000KT 10SM SCT009 SCT015 BKN027 25/23 A3002 RMK AO1
K5C1 201555Z AUTO 00000KT 10SM SCT009 BKN014 BKN025 23/23 A3002 RMK AO1
K5C1 201535Z AUTO 00000KT 7SM BKN009 OVC013 23/23 A3002 RMK AO1
K5C1 201515Z AUTO 00000KT 7SM BKN009 BKN012 OVC019 23/23 A3002 RMK AO1
K5C1 201455Z AUTO 00000KT 4SM OVC007 23/23 A3001 RMK AO1 P0004
K5C1 201435Z AUTO 00000KT 7SM BKN005 OVC012 23/23 A3001 RMK AO1
K5C1 201415Z AUTO 00000KT 7SM OVC005 23/23 A3001 RMK AO1
K5C1 201355Z AUTO 00000KT 7SM OVC007 23/22 A3000 RMK AO1
K5C1 201335Z AUTO 00000KT 7SM BKN007 OVC011 22/22 A3000 RMK AO1
K5C1 201315Z AUTO 00000KT 10SM BKN011 BKN042 BKN120 22/22 A2999 RMK AO1
K5C1 201255Z AUTO 00000KT 7SM SCT005 SCT011 BKN120 22/22 A2997 RMK AO1 P0002
K5C1 201235Z AUTO 00000KT 5SM BKN007 BKN011 OVC025 23/23 A2997 RMK AO1 P0001
K5C1 201215Z AUTO 00000KT 10SM BKN009 BKN014 OVC030 23/22 A2997 RMK AO1
K5C1 201155Z AUTO 00000KT 10SM BKN009 OVC014 23/22 A2997 RMK AO1
K5C1 201135Z AUTO 17005KT 10SM SCT007 BKN011 OVC028 23/22 A2997 RMK AO1
K5C1 201115Z AUTO 17005KT 10SM BKN007 OVC013 23/22 A2997 RMK AO1
K5C1 201055Z AUTO 19006KT 10SM BKN009 OVC019 23/22 A2997 RMK AO1
K5C1 201035Z AUTO 19007KT 10SM OVC009 23/22 A2996 RMK AO1
K5C1 201015Z AUTO 00000KT 10SM OVC009 23/22 A2996 RMK AO1
K5C1 200955Z AUTO 00000KT 10SM OVC009 23/22 A2996 RMK AO1
K5C1 200935Z AUTO 00000KT 10SM OVC009 23/22 A2997 RMK AO1
K5C1 200915Z AUTO 00000KT 10SM OVC009 23/22 A2997 RMK AO1
K5C1 200855Z AUTO 00000KT 10SM OVC011 23/22 A2998 RMK AO1
K5C1 200835Z AUTO 00000KT 10SM OVC011 23/22 A2999 RMK AO1
K5C1 200815Z AUTO 00000KT 10SM OVC011 23/22 A2999 RMK AO1
K5C1 200755Z AUTO 00000KT 10SM BKN011 OVC015 23/22 A2999 RMK AO1
K5C1 200735Z AUTO 00000KT 10SM BKN011 OVC020 23/22 A2999 RMK AO1
K5C1 200715Z AUTO 00000KT 10SM OVC011 23/22 A3000 RMK AO1
K5C1 200655Z AUTO 00000KT 10SM OVC013 23/22 A3000 RMK AO1
K5C1 200635Z AUTO 00000KT 10SM BKN015 OVC019 23/22 A3000 RMK AO1